Vernon, Texas
Current Conditions -  °F | °C
As of 2:16 AM on Tuesday 21 Oct 2014 (Local Time) from KF05 Reporting Station
Clear Clear  
Wind Chill: 64°   Ceiling: Unl
Heat Index: 64°   Visibility: 10mi
Dew Point: 55°   Wind: 6mph
Humidity: 73%   Direction: 170°S
Pressure: 30.06"   Gusts: NA
Location:  34.15°N, 99.28°W
Report Text: KF05 210716Z AUTO 17005KT 10SM CLR 18/13 A3006 RMK AO2
Loading
Personal Weather Stations






























Interactive Weather Map New forecast layout! Learn more

10-Day Weather Forecast

Advertisements
Track Severe Weather on mobile